Aérodrome :
LOGIN :

S'inscrire | Disclaimer

   EN    FR    IT 

 










Légende :    VFR   VFR Marginal   IFR   IFR Intensif   IFR Très Intensif
Visi : 
Plafond : 
>= 8 km
>= 3000ft
5 à 8 km
1000 à 3000 ft
1500m à 5 km
500 à 1000 ft
800 à 1500m
200 à 500 ft
< 800m
< 200 ft
Symboles :   Orages  Brouillard  Fortes neiges  Fortes précipitations  Vent > 20 kt
SIGMETs :   Divers  Orages  Givrage  Turbulence  Onde Orograph.  Cendres Volcan.






- Altitude de l'aérodrome : 297 ft
- Code IATA : UIP


LFRQ - Quimper Pluguffan

DERNIER METAR :
  • 151030Z AUTO 20006KT 120V250 CAVOK 22/17 Q1006 NOSIG

METARs EXPIRÉS :
  • 151000Z AUTO 23003KT 160V320 9999 SCT014 SCT140 BKN170 21/16 Q1006 NOSIG
  • 150930Z AUTO 28006KT 9999 BKN013 OVC140 20/17 Q1006 BECMG SCT015
  • 150900Z AUTO 26006KT 220V290 9999 OVC013 19/17 Q1006 BECMG SCT015
  • 150830Z AUTO 25007KT 230V290 9999 OVC009 19/17 Q1006 BECMG SCT015
  • 150800Z AUTO 25004KT 210V310 9999 BKN008 OVC110 19/17 Q1006 BECMG SCT015

TAF AMD TAF LFRQ
Valide du 15 à 07h jusqu'au 16 à 06h UTC


150722Z 1507/1606 25008KT 6000 BKN007
BECMG 1508/1510 SCT015
PROB40
TEMPO 1518/1524 4000 SHRA BKN007 BKN040TCU
TEMPO 1600/1606 3000 SHRA BKN007 BKN020CB
PROB40
TEMPO 1600/1606 TSRA
BECMG 1602/1604 16010KT



MET'MAP, la Météo Aéronautique d'un coup d'oeil ! - Copyright ORBIFLY Décembre 2007 - Disclaimer

ORBIFLY MET'MAP TEAM :

Programmation & Développement : Alexandra Zaïnal
Sur une idée originale de : Baudouin d'Aumeries
Soutien technique & logistique : Manuel Goepfert
Assistance : Marc-Olivier Méhu




SOURCES & CREDITS :

   NOAA